Time;durP1;ratioP1;P1;durP2;ratioP2;P2;SDS_P1;SDS_P2;PMS_P1;PMS_P2;Temp;Humidity;BMP_temperature;BMP_pressure;BME280_temperature;BME280_humidity;BME280_pressure;Samples;Min_cycle;Max_cycle;Signal;HPM_P1;HPM_P2
2022/08/13 00:00:54;;;;;;;0.70;0.10;;;24.20;99.90;;;;;;5073715;28;20438;-73
2022/08/13 00:03:22;;;;;;;0.70;0.10;;;24.10;99.90;;;;;;5072519;28;20458;-73
2022/08/13 00:06:10;;;;;;;0.70;0.20;;;24.10;99.90;;;;;;5053097;28;20439;-73
2022/08/13 00:08:53;;;;;;;0.70;0.10;;;24.10;99.90;;;;;;5053374;28;20462;-73
2022/08/13 00:14:06;;;;;;;2.73;2.63;;;24.00;99.90;;;;;;5077947;28;20471;-72
2022/08/13 00:16:37;;;;;;;0.70;0.20;;;23.90;99.90;;;;;;5093715;28;20478;-72
2022/08/13 00:19:05;;;;;;;0.70;0.10;;;23.90;99.90;;;;;;5093481;28;20958;-73
2022/08/13 00:21:34;;;;;;;0.70;0.20;;;23.90;99.90;;;;;;5093317;28;21130;-73
2022/08/13 00:24:22;;;;;;;0.70;0.10;;;23.80;99.90;;;;;;5085626;28;20984;-74
2022/08/13 00:26:59;;;;;;;0.70;0.20;;;23.80;99.90;;;;;;5061432;28;20945;-74
2022/08/13 00:29:29;;;;;;;0.70;0.10;;;23.70;99.90;;;;;;5065990;28;20477;-72
2022/08/13 00:31:58;;;;;;;0.70;0.17;;;23.70;99.90;;;;;;5073024;28;20457;-72
2022/08/13 00:34:27;;;;;;;0.70;0.20;;;23.70;99.90;;;;;;5073357;28;20466;-72
2022/08/13 00:36:55;;;;;;;0.70;0.10;;;23.70;99.90;;;;;;5072882;28;20885;-74
2022/08/13 00:39:43;;;;;;;0.70;0.20;;;23.60;99.90;;;;;;5010976;28;20468;-73
2022/08/13 00:42:31;;;;;;;0.70;0.20;;;23.50;99.90;;;;;;5011334;28;20440;-73
2022/08/13 00:45:00;;;;;;;0.70;0.10;;;23.50;99.90;;;;;;5011491;28;20463;-72
2022/08/13 00:50:21;;;;;;;0.70;0.20;;;23.40;99.90;;;;;;5012783;28;20483;-74
2022/08/13 00:52:49;;;;;;;0.70;0.10;;;23.30;99.90;;;;;;5013074;28;20575;-74
2022/08/13 00:55:20;;;;;;;0.70;0.10;;;23.30;99.90;;;;;;5022648;28;20475;-72
2022/08/13 00:57:50;;;;;;;0.70;0.10;;;23.30;99.90;;;;;;5059143;28;20498;-73
2022/08/13 01:00:24;;;;;;;0.70;0.20;;;23.20;99.90;;;;;;5092671;28;20433;-73
2022/08/13 01:02:53;;;;;;;0.70;0.20;;;23.10;99.90;;;;;;5092642;28;20460;-72
2022/08/13 01:05:25;;;;;;;0.70;0.10;;;23.20;99.90;;;;;;5079787;28;20445;-72
2022/08/13 01:07:58;;;;;;;0.80;0.40;;;23.10;99.90;;;;;;5072347;28;20888;-72
2022/08/13 01:10:26;;;;;;;0.70;0.10;;;23.10;99.90;;;;;;5072196;28;20481;-74
2022/08/13 01:12:56;;;;;;;0.70;0.10;;;23.10;99.90;;;;;;5072324;28;20960;-74
2022/08/13 01:15:26;;;;;;;0.70;0.20;;;23.10;99.90;;;;;;5083568;28;20450;-73
2022/08/13 01:18:14;;;;;;;0.70;0.10;;;23.00;99.90;;;;;;5092286;28;20807;-74
2022/08/13 01:20:46;;;;;;;0.70;0.10;;;23.00;99.90;;;;;;5092391;28;20436;-73
2022/08/13 01:23:18;;;;;;;0.70;0.20;;;22.90;99.90;;;;;;5092199;28;20967;-73
2022/08/13 01:26:01;;;;;;;0.70;0.20;;;22.90;99.90;;;;;;5074666;28;20815;-73
2022/08/13 01:28:38;;;;;;;0.80;0.50;;;22.90;99.90;;;;;;5072268;28;20444;-73
2022/08/13 01:31:10;;;;;;;0.70;0.10;;;22.90;99.90;;;;;;5071856;28;20481;-72
2022/08/13 01:33:46;;;;;;;0.70;0.10;;;22.70;99.90;;;;;;5072132;28;20497;-73
2022/08/13 01:36:21;;;;;;;0.70;0.20;;;22.70;99.90;;;;;;5073443;28;20449;-73
2022/08/13 01:39:11;;;;;;;0.70;0.20;;;22.70;99.90;;;;;;5071657;28;20437;-73
2022/08/13 01:41:48;;;;;;;0.70;0.20;;;22.70;99.90;;;;;;5072055;28;20445;-74
2022/08/13 01:44:23;;;;;;;0.70;0.10;;;22.80;99.90;;;;;;5077100;28;20593;-73
2022/08/13 01:52:41;;;;;;;0.70;0.20;;;22.70;99.90;;;;;;5091887;28;20557;-73
2022/08/13 01:55:12;;;;;;;0.70;0.10;;;22.70;99.90;;;;;;5077264;28;20437;-75
2022/08/13 01:57:44;;;;;;;0.70;0.10;;;22.60;99.90;;;;;;5071419;28;20433;-74
2022/08/13 02:00:21;;;;;;;0.70;0.10;;;22.60;99.90;;;;;;5071641;28;20440;-74
2022/08/13 02:02:55;;;;;;;0.70;0.20;;;22.60;99.90;;;;;;5071822;28;20457;-74
2022/08/13 02:05:26;;;;;;;0.70;0.10;;;22.60;99.90;;;;;;5087392;28;20457;-74
2022/08/13 02:08:16;;;;;;;0.70;0.20;;;22.60;99.90;;;;;;5091856;28;20445;-74
2022/08/13 02:10:50;;;;;;;0.70;0.17;;;22.70;99.90;;;;;;5091724;28;20481;-74
2022/08/13 02:13:21;;;;;;;0.70;0.10;;;22.70;99.90;;;;;;5090045;28;20971;-73
2022/08/13 02:15:52;;;;;;;0.70;0.20;;;22.70;99.90;;;;;;5071327;28;21021;-74
2022/08/13 02:18:23;;;;;;;0.70;0.10;;;22.70;99.90;;;;;;5071336;28;20479;-73
2022/08/13 02:20:53;;;;;;;0.70;0.20;;;22.70;99.90;;;;;;5071538;28;20437;-73
2022/08/13 02:23:25;;;;;;;0.70;0.10;;;22.70;99.90;;;;;;5073008;28;20541;-73
2022/08/13 02:26:17;;;;;;;0.70;0.20;;;22.70;99.90;;;;;;5090907;28;20486;-73
2022/08/13 02:28:45;;;;;;;0.70;0.10;;;22.60;99.90;;;;;;5084055;28;20767;-74
2022/08/13 02:31:17;;;;;;;0.70;0.20;;;22.60;99.90;;;;;;5071574;28;20481;-73
2022/08/13 02:34:06;;;;;;;0.70;0.13;;;22.60;99.90;;;;;;5081407;28;20475;-73
2022/08/13 02:36:41;;;;;;;0.70;0.10;;;22.50;99.90;;;;;;5091285;28;20444;-73
2022/08/13 02:39:14;;;;;;;0.70;0.20;;;22.50;99.90;;;;;;5091840;28;20815;-73
2022/08/13 02:41:43;;;;;;;0.70;0.10;;;22.50;99.90;;;;;;5091943;28;20443;-73
2022/08/13 02:44:21;;;;;;;0.70;0.10;;;22.50;99.90;;;;;;5079876;28;20972;-71
2022/08/13 02:47:01;;;;;;;0.70;0.10;;;22.50;99.90;;;;;;5093682;28;20455;-74
2022/08/13 02:49:29;;;;;;;0.70;0.10;;;22.50;99.90;;;;;;5100345;28;20444;-73
2022/08/13 02:52:13;;;;;;;0.70;0.20;;;22.40;99.90;;;;;;5101127;28;21101;-72
2022/08/13 02:54:46;;;;;;;0.70;0.10;;;22.40;99.90;;;;;;5079731;28;20489;-73
2022/08/13 02:57:25;;;;;;;0.70;0.20;;;22.40;99.90;;;;;;5076214;28;20437;-72
2022/08/13 02:59:54;;;;;;;0.70;0.10;;;22.30;99.90;;;;;;5076133;28;20495;-72
2022/08/13 03:02:38;;;;;;;0.70;0.20;;;22.20;99.90;;;;;;5075837;28;20442;-74
2022/08/13 03:05:09;;;;;;;0.70;0.10;;;22.20;99.90;;;;;;5075733;28;20557;-73
2022/08/13 03:07:43;;;;;;;0.70;0.17;;;22.10;99.90;;;;;;5075243;28;20484;-73
2022/08/13 03:10:22;;;;;;;0.70;0.20;;;22.00;99.90;;;;;;5074791;28;20471;-73
2022/08/13 03:13:16;;;;;;;0.70;0.10;;;21.90;99.90;;;;;;5078007;28;20468;-73
2022/08/13 03:15:52;;;;;;;0.70;0.20;;;21.90;99.90;;;;;;5094310;28;20478;-73
2022/08/13 03:18:29;;;;;;;0.70;0.10;;;21.90;99.90;;;;;;5095127;28;20444;-73
2022/08/13 03:21:19;;;;;;;0.70;0.20;;;22.00;99.90;;;;;;5094623;28;20864;-73
2022/08/13 03:24:09;;;;;;;0.70;0.20;;;22.10;99.90;;;;;;5083255;28;20461;-73
2022/08/13 03:26:38;;;;;;;0.70;0.10;;;22.10;99.90;;;;;;5074119;28;20444;-74
2022/08/13 03:29:09;;;;;;;0.70;0.20;;;22.10;99.90;;;;;;5074596;28;20442;-73
2022/08/13 03:31:37;;;;;;;0.70;0.20;;;22.20;99.90;;;;;;5074473;28;20478;-73
2022/08/13 03:34:22;;;;;;;0.70;0.10;;;22.20;99.90;;;;;;5074359;28;20465;-73
2022/08/13 03:36:53;;;;;;;0.70;0.10;;;22.20;99.90;;;;;;5073912;28;20453;-72
2022/08/13 03:39:24;;;;;;;0.70;0.10;;;22.20;99.90;;;;;;5074335;28;20466;-73
2022/08/13 03:41:53;;;;;;;0.70;0.20;;;22.20;99.90;;;;;;5074006;28;20469;-73
2022/08/13 03:44:28;;;;;;;0.70;0.20;;;22.20;99.90;;;;;;5087007;28;20492;-73
2022/08/13 03:47:01;;;;;;;0.70;0.10;;;22.20;99.90;;;;;;5093830;28;20929;-73
2022/08/13 03:49:49;;;;;;;0.70;0.10;;;22.00;99.90;;;;;;5094645;28;20448;-72
2022/08/13 03:52:19;;;;;;;0.70;0.20;;;22.00;99.90;;;;;;5095273;28;20567;-73
2022/08/13 03:55:00;;;;;;;0.70;0.17;;;22.00;99.90;;;;;;5076117;28;20485;-73
2022/08/13 03:57:28;;;;;;;0.70;0.10;;;21.90;99.90;;;;;;5073518;28;20972;-74
2022/08/13 03:59:59;;;;;;;0.70;0.20;;;21.90;99.90;;;;;;5073384;28;20473;-73
2022/08/13 04:02:40;;;;;;;0.70;0.10;;;21.70;99.90;;;;;;5073044;28;20434;-73
2022/08/13 04:05:11;;;;;;;0.70;0.10;;;21.70;99.90;;;;;;5073550;28;20536;-73
2022/08/13 04:07:39;;;;;;;0.70;0.10;;;21.70;99.90;;;;;;5073285;28;20925;-73
2022/08/13 04:10:12;;;;;;;0.70;0.10;;;21.70;99.90;;;;;;5073391;28;20800;-73
2022/08/13 04:12:40;;;;;;;0.70;0.20;;;21.60;99.90;;;;;;5068095;28;20477;-73
2022/08/13 04:15:10;;;;;;;0.70;0.13;;;21.60;99.90;;;;;;5081401;28;20864;-74
2022/08/13 04:17:40;;;;;;;0.70;0.13;;;21.60;99.90;;;;;;5075801;28;20437;-74
2022/08/13 04:20:10;;;;;;;0.70;0.10;;;21.60;99.90;;;;;;5073507;28;20504;-74
2022/08/13 04:22:40;;;;;;;0.90;0.20;;;21.50;99.90;;;;;;5073236;28;20426;-74
2022/08/13 04:25:09;;;;;;;0.70;0.20;;;21.50;99.90;;;;;;5091523;28;20456;-74
2022/08/13 04:27:55;;;;;;;0.70;0.20;;;21.50;99.90;;;;;;5093293;28;20445;-74
2022/08/13 04:30:35;;;;;;;0.70;0.10;;;21.50;99.90;;;;;;5068185;28;20544;-74
2022/08/13 04:33:11;;;;;;;0.70;0.20;;;21.50;99.90;;;;;;5073692;28;20905;-74
2022/08/13 04:35:50;;;;;;;0.70;0.20;;;21.50;99.90;;;;;;5093299;28;20439;-73
2022/08/13 04:38:25;;;;;;;0.70;0.23;;;21.50;99.90;;;;;;5092905;28;20436;-74
2022/08/13 04:40:53;;;;;;;0.70;0.10;;;21.40;99.90;;;;;;5092701;28;20444;-73
2022/08/13 04:43:25;;;;;;;0.70;0.20;;;21.30;99.90;;;;;;5089033;28;20464;-73
2022/08/13 04:45:59;;;;;;;0.70;0.20;;;21.30;99.90;;;;;;5072558;28;20541;-73
2022/08/13 04:48:31;;;;;;;0.70;0.20;;;21.30;99.90;;;;;;5066387;28;20438;-73
2022/08/13 04:51:00;;;;;;;0.80;0.50;;;21.30;99.90;;;;;;5072372;28;20937;-74
2022/08/13 04:53:32;;;;;;;0.70;0.20;;;21.40;99.90;;;;;;5073028;28;20477;-72
2022/08/13 04:56:03;;;;;;;0.70;0.10;;;21.40;99.90;;;;;;5081498;28;20846;-72
2022/08/13 04:58:46;;;;;;;0.70;0.10;;;21.40;99.90;;;;;;5077041;28;20455;-76
2022/08/13 05:01:15;;;;;;;0.70;0.20;;;21.40;99.90;;;;;;5072002;28;20936;-73
2022/08/13 05:04:03;;;;;;;0.70;0.10;;;21.40;99.90;;;;;;5064529;28;20489;-72
2022/08/13 05:06:51;;;;;;;0.70;0.20;;;21.40;99.90;;;;;;5065889;28;20465;-73
2022/08/13 05:09:19;;;;;;;0.70;0.10;;;21.40;99.90;;;;;;5072174;28;20449;-74
2022/08/13 05:11:57;;;;;;;0.70;0.20;;;21.40;99.90;;;;;;5062529;28;20512;-75
2022/08/13 05:14:33;;;;;;;0.70;0.10;;;21.50;99.90;;;;;;5051996;28;20466;-73
2022/08/13 05:17:04;;;;;;;0.70;0.10;;;21.50;99.90;;;;;;5084788;28;20931;-73
2022/08/13 05:19:32;;;;;;;0.70;0.20;;;21.40;99.90;;;;;;5092676;28;20996;-73
2022/08/13 05:22:05;;;;;;;0.70;0.10;;;21.50;99.90;;;;;;5093429;28;20951;-75
2022/08/13 05:24:42;;;;;;;0.70;0.30;;;21.50;99.90;;;;;;5093250;28;20460;-76
2022/08/13 05:27:31;;;;;;;0.70;0.20;;;21.50;99.90;;;;;;5095986;28;20931;-75
2022/08/13 05:30:00;;;;;;;0.70;0.10;;;21.50;99.90;;;;;;5076878;28;20445;-74
2022/08/13 05:32:50;;;;;;;0.70;0.10;;;21.60;99.90;;;;;;5072970;28;21901;-73
2022/08/13 05:35:19;;;;;;;0.70;0.10;;;21.60;99.90;;;;;;5073409;28;20679;-73
2022/08/13 05:38:07;;;;;;;0.70;0.20;;;21.60;99.90;;;;;;5056505;28;20473;-72
2022/08/13 05:40:49;;;;;;;0.70;0.20;;;21.70;99.90;;;;;;5056799;28;20442;-74
2022/08/13 05:43:23;;;;;;;0.70;0.20;;;21.70;99.90;;;;;;5058215;28;20493;-75
2022/08/13 05:45:57;;;;;;;0.80;0.40;;;21.70;99.90;;;;;;5069139;28;20463;-75
2022/08/13 05:48:37;;;;;;;0.70;0.20;;;21.70;99.90;;;;;;5095378;28;20461;-75
2022/08/13 05:51:07;;;;;;;0.70;0.10;;;21.70;99.90;;;;;;5076171;28;20434;-75
2022/08/13 05:53:38;;;;;;;0.70;0.20;;;21.70;99.90;;;;;;5075333;28;20473;-76
2022/08/13 05:56:08;;;;;;;0.70;0.10;;;21.70;99.90;;;;;;5070388;28;20462;-75
2022/08/13 05:58:45;;;;;;;0.70;0.10;;;21.70;99.90;;;;;;5064233;28;20462;-75
2022/08/13 06:04:04;;;;;;;0.70;0.20;;;21.70;99.90;;;;;;5071859;28;20464;-76
2022/08/13 06:06:52;;;;;;;0.70;0.20;;;21.70;99.90;;;;;;5073764;28;20445;-76
2022/08/13 06:09:20;;;;;;;0.70;0.10;;;21.80;99.90;;;;;;5075179;28;20444;-76
2022/08/13 06:11:51;;;;;;;0.70;0.20;;;21.80;99.90;;;;;;5077245;28;20448;-75
2022/08/13 06:14:39;;;;;;;0.70;0.20;;;21.80;99.90;;;;;;5075693;28;20480;-73
2022/08/13 06:17:22;;;;;;;0.70;0.30;;;21.80;99.90;;;;;;5077558;28;20512;-75
2022/08/13 06:19:52;;;;;;;0.70;0.13;;;21.80;99.90;;;;;;5078599;28;20434;-77
2022/08/13 06:22:23;;;;;;;0.70;0.10;;;21.90;99.90;;;;;;5082568;28;20456;-76
2022/08/13 06:24:51;;;;;;;0.70;0.10;;;21.90;99.90;;;;;;5074255;28;20471;-74
2022/08/13 06:27:24;;;;;;;0.70;0.20;;;21.90;99.90;;;;;;5089215;28;20445;-74
2022/08/13 06:30:14;;;;;;;0.70;0.30;;;22.00;99.90;;;;;;5080436;28;20473;-73
2022/08/13 06:33:01;;;;;;;0.70;0.20;;;22.00;99.90;;;;;;5082621;28;20516;-74
2022/08/13 06:35:51;;;;;;;0.70;0.17;;;22.00;99.90;;;;;;5081601;28;20765;-77
2022/08/13 06:38:30;;;;;;;0.70;0.20;;;22.10;99.90;;;;;;5075964;28;20524;-73
2022/08/13 06:41:02;;;;;;;0.70;0.10;;;22.10;99.90;;;;;;5077457;28;20440;-73
2022/08/13 06:43:32;;;;;;;0.70;0.20;;;22.20;99.90;;;;;;5075261;28;20840;-73
2022/08/13 06:46:24;;;;;;;0.70;0.10;;;22.20;99.90;;;;;;5075769;28;20679;-72
2022/08/13 06:48:57;;;;;;;0.70;0.30;;;22.30;99.90;;;;;;5087356;28;20466;-76
2022/08/13 06:51:27;;;;;;;0.70;0.10;;;22.40;99.90;;;;;;5100786;28;20445;-73
2022/08/13 06:53:55;;;;;;;0.70;0.10;;;22.50;99.90;;;;;;5098236;28;20519;-72
2022/08/13 06:56:44;;;;;;;0.70;0.20;;;22.60;99.90;;;;;;5098133;28;20842;-73
2022/08/13 06:59:29;;;;;;;0.70;0.10;;;22.60;99.90;;;;;;5096998;28;20440;-73
2022/08/13 07:02:21;;;;;;;0.70;0.20;;;22.70;99.90;;;;;;5096265;28;20451;-74
2022/08/13 07:04:49;;;;;;;0.70;0.10;;;22.80;99.90;;;;;;5078167;28;20478;-73
2022/08/13 07:07:24;;;;;;;0.70;0.20;;;22.90;99.90;;;;;;5083608;28;20438;-74
2022/08/13 07:09:53;;;;;;;0.70;0.10;;;22.90;99.90;;;;;;5094737;28;20444;-73
2022/08/13 07:12:21;;;;;;;0.70;0.10;;;23.00;99.90;;;;;;5091022;28;20501;-74
2022/08/13 07:14:52;;;;;;;0.70;0.13;;;23.00;99.90;;;;;;5062666;28;20552;-73
2022/08/13 07:17:29;;;;;;;0.70;0.20;;;23.10;99.90;;;;;;5074492;28;20429;-72
2022/08/13 07:20:02;;;;;;;0.80;0.33;;;23.20;99.90;;;;;;5075155;28;20445;-73
2022/08/13 07:22:36;;;;;;;0.83;0.40;;;23.20;99.90;;;;;;5074446;28;20422;-75
2022/08/13 07:25:26;;;;;;;0.80;0.30;;;23.20;99.90;;;;;;5074736;28;20442;-69
2022/08/13 07:28:18;;;;;;;0.70;0.10;;;23.30;99.90;;;;;;5072098;28;20438;-70
2022/08/13 07:31:06;;;;;;;0.70;0.20;;;23.30;99.90;;;;;;5074919;28;20449;-72
2022/08/13 07:33:42;;;;;;;0.90;0.70;;;23.50;99.90;;;;;;5074363;28;20480;-71
2022/08/13 07:36:27;;;;;;;0.70;0.20;;;23.60;99.90;;;;;;5073506;28;20495;-71
2022/08/13 07:38:57;;;;;;;0.70;0.20;;;23.80;99.90;;;;;;5074461;28;20485;-72
2022/08/13 07:41:27;;;;;;;0.70;0.30;;;23.90;99.90;;;;;;5074009;28;20448;-72
2022/08/13 07:44:00;;;;;;;0.70;0.10;;;23.90;99.90;;;;;;5074289;28;20545;-74
2022/08/13 07:46:42;;;;;;;0.70;0.20;;;23.90;99.90;;;;;;5074734;28;20570;-72
2022/08/13 07:49:18;;;;;;;0.90;0.53;;;24.00;99.90;;;;;;5070941;28;20438;-71
2022/08/13 07:51:47;;;;;;;0.70;0.10;;;24.20;99.90;;;;;;5067432;28;20452;-71
2022/08/13 07:54:19;;;;;;;0.70;0.20;;;24.30;99.90;;;;;;5070892;28;20481;-73
2022/08/13 07:56:51;;;;;;;0.70;0.10;;;24.30;99.90;;;;;;5076996;28;20441;-71
2022/08/13 07:59:22;;;;;;;0.70;0.20;;;24.30;99.90;;;;;;5076044;28;20433;-73
2022/08/13 08:02:12;;;;;;;0.70;0.20;;;24.50;99.90;;;;;;5076539;28;20433;-72
2022/08/13 08:04:56;;;;;;;0.70;0.10;;;24.50;99.90;;;;;;5068720;28;20555;-74
2022/08/13 08:07:25;;;;;;;0.70;0.20;;;24.70;99.90;;;;;;5075002;28;20444;-73
2022/08/13 08:09:59;;;;;;;0.70;0.20;;;24.70;99.90;;;;;;5075842;28;20430;-72
2022/08/13 08:12:35;;;;;;;0.70;0.20;;;24.80;99.90;;;;;;5071860;28;20928;-74
2022/08/13 08:15:22;;;;;;;0.70;0.20;;;24.90;99.90;;;;;;5064780;28;20470;-71
2022/08/13 08:17:51;;;;;;;0.70;0.20;;;25.00;99.90;;;;;;5072703;28;20491;-72
2022/08/13 08:20:42;;;;;;;0.70;0.10;;;25.00;99.90;;;;;;5072152;28;20442;-72
2022/08/13 08:23:26;;;;;;;0.70;0.10;;;25.10;99.90;;;;;;5073521;28;20505;-72
2022/08/13 08:26:17;;;;;;;0.70;0.10;;;25.20;99.90;;;;;;5073386;28;20446;-71
2022/08/13 08:28:46;;;;;;;0.70;0.20;;;25.30;99.90;;;;;;5072571;28;20940;-71
2022/08/13 08:31:18;;;;;;;0.70;0.10;;;25.30;99.90;;;;;;5072263;28;20461;-71
2022/08/13 08:33:56;;;;;;;0.70;0.10;;;25.40;99.90;;;;;;5072678;28;20485;-71
2022/08/13 08:36:25;;;;;;;0.70;0.10;;;25.40;99.90;;;;;;5070001;28;20438;-70
2022/08/13 08:44:42;;;;;;;0.70;0.20;;;25.50;99.90;;;;;;5073904;28;20871;-71
2022/08/13 08:47:11;;;;;;;0.70;0.10;;;25.60;99.90;;;;;;5075768;28;20453;-72
2022/08/13 08:49:44;;;;;;;0.70;0.20;;;25.60;99.90;;;;;;5073363;28;20452;-72
2022/08/13 08:52:19;;;;;;;0.70;0.20;;;25.60;99.90;;;;;;5059107;28;20472;-72
2022/08/13 08:54:57;;;;;;;0.70;0.10;;;25.70;99.90;;;;;;5067609;28;20518;-72
2022/08/13 08:57:44;;;;;;;0.70;0.10;;;25.80;99.90;;;;;;5069979;28;20467;-71
2022/08/13 09:00:21;;;;;;;0.70;0.20;;;25.90;99.90;;;;;;5074089;28;20441;-72
2022/08/13 09:02:52;;;;;;;0.70;0.20;;;26.00;99.90;;;;;;5071921;28;20833;-71
2022/08/13 09:05:21;;;;;;;0.70;0.20;;;26.00;99.90;;;;;;5069815;28;20500;-71
2022/08/13 09:07:50;;;;;;;0.70;0.13;;;26.10;99.90;;;;;;5065193;28;20462;-71
2022/08/13 09:10:22;;;;;;;0.70;0.10;;;26.20;99.90;;;;;;5071531;28;20960;-71
2022/08/13 09:13:02;;;;;;;0.70;0.20;;;26.30;99.90;;;;;;5071435;28;20488;-72
2022/08/13 09:15:35;;;;;;;0.70;0.20;;;26.30;99.90;;;;;;5071293;28;20496;-71
2022/08/13 09:18:06;;;;;;;0.70;0.10;;;26.40;99.90;;;;;;5072307;28;20449;-71
2022/08/13 09:20:46;;;;;;;0.70;0.10;;;26.50;99.90;;;;;;5081095;28;20445;-70
2022/08/13 09:23:22;;;;;;;0.70;0.20;;;26.60;99.90;;;;;;5070838;28;20828;-70
2022/08/13 09:26:10;;;;;;;0.70;0.10;;;26.80;99.90;;;;;;5071125;28;20843;-70
2022/08/13 09:28:42;;;;;;;0.70;0.10;;;26.60;99.90;;;;;;5071074;28;20495;-70
2022/08/13 09:31:13;;;;;;;0.70;0.20;;;26.70;99.90;;;;;;5070916;28;20467;-71
2022/08/13 09:33:46;;;;;;;0.70;0.10;;;26.80;99.90;;;;;;5071390;28;20552;-71
2022/08/13 09:36:31;;;;;;;0.70;0.20;;;26.90;99.90;;;;;;5072520;28;20433;-70
2022/08/13 09:39:00;;;;;;;0.70;0.20;;;27.10;99.90;;;;;;5075308;28;20406;-72
2022/08/13 09:41:33;;;;;;;1.33;0.80;;;27.10;99.90;;;;;;5073282;28;20471;-70
2022/08/13 09:44:06;;;;;;;0.70;0.27;;;27.20;99.90;;;;;;5075976;28;20534;-71
2022/08/13 09:46:45;;;;;;;0.73;0.23;;;27.20;99.90;;;;;;5070104;28;20465;-71
2022/08/13 09:49:20;;;;;;;0.70;0.13;;;27.00;99.90;;;;;;5070840;28;20445;-71
2022/08/13 09:52:05;;;;;;;0.70;0.13;;;27.10;99.90;;;;;;5070905;28;20448;-71
2022/08/13 09:54:48;;;;;;;0.70;0.37;;;27.10;99.90;;;;;;5066638;28;20932;-71
2022/08/13 09:57:20;;;;;;;0.70;0.20;;;27.20;99.90;;;;;;5068471;28;20472;-72
2022/08/13 09:59:50;;;;;;;0.70;0.20;;;27.20;99.90;;;;;;5072155;28;20437;-73
2022/08/13 10:02:24;;;;;;;1.20;0.90;;;27.30;99.90;;;;;;5074905;28;20447;-73
2022/08/13 10:04:55;;;;;;;0.70;0.10;;;27.40;99.90;;;;;;5073307;28;20507;-72
2022/08/13 10:07:23;;;;;;;0.70;0.20;;;27.60;99.90;;;;;;5058772;28;20472;-71
2022/08/13 10:09:52;;;;;;;0.70;0.20;;;27.60;99.90;;;;;;5076103;28;20487;-73
2022/08/13 10:12:41;;;;;;;0.70;0.20;;;27.60;99.90;;;;;;5076250;28;20441;-72
2022/08/13 10:15:15;;;;;;;0.70;0.20;;;27.60;99.90;;;;;;5056058;28;20572;-72
2022/08/13 10:17:52;;;;;;;0.70;0.20;;;27.80;99.90;;;;;;5056431;28;20913;-72
2022/08/13 10:20:25;;;;;;;0.70;0.20;;;27.80;99.90;;;;;;5056161;28;20537;-73
2022/08/13 10:22:54;;;;;;;0.70;0.10;;;28.10;99.90;;;;;;5057073;28;20462;-72
2022/08/13 10:25:23;;;;;;;0.70;0.10;;;28.10;99.90;;;;;;5056571;28;20522;-70
2022/08/13 10:28:19;;;;;;;0.70;0.20;;;28.20;99.90;;;;;;5058935;28;20468;-72
2022/08/13 10:31:00;;;;;;;0.80;0.40;;;28.30;99.90;;;;;;5076283;28;20464;-71
2022/08/13 10:33:53;;;;;;;0.70;0.10;;;28.40;99.90;;;;;;5075046;28;20466;-72
2022/08/13 10:36:25;;;;;;;0.70;0.20;;;28.40;99.90;;;;;;5076889;28;20713;-71
2022/08/13 10:39:01;;;;;;;0.70;0.10;;;28.50;99.90;;;;;;5076990;28;20477;-71
2022/08/13 10:41:32;;;;;;;0.70;0.20;;;28.70;99.90;;;;;;5076062;28;20499;-71
2022/08/13 10:44:00;;;;;;;0.70;0.10;;;28.80;99.90;;;;;;5076330;28;20587;-72
2022/08/13 10:46:31;;;;;;;2.70;1.13;;;28.80;99.90;;;;;;5076576;28;20942;-72
2022/08/13 10:49:01;;;;;;;0.70;0.10;;;28.80;99.90;;;;;;5076153;28;20943;-71
2022/08/13 10:51:31;;;;;;;6.83;5.90;;;28.80;99.90;;;;;;5075950;28;20807;-70
2022/08/13 10:54:11;;;;;;;0.70;0.10;;;28.50;99.90;;;;;;5074939;28;20998;-72
2022/08/13 10:56:58;;;;;;;0.80;0.20;;;28.50;99.90;;;;;;5075034;28;20911;-72
2022/08/13 10:59:27;;;;;;;0.80;0.30;;;28.50;99.90;;;;;;5070063;28;20454;-73
2022/08/13 11:01:56;;;;;;;0.70;0.10;;;28.60;99.90;;;;;;5065706;28;20945;-72
2022/08/13 11:04:28;;;;;;;0.70;0.20;;;28.60;99.90;;;;;;5073732;28;20453;-71
2022/08/13 11:06:58;;;;;;;0.70;0.20;;;28.70;99.90;;;;;;5071169;28;20556;-71
2022/08/13 11:09:28;;;;;;;0.70;0.20;;;28.80;99.90;;;;;;5074814;28;20604;-71
2022/08/13 11:12:07;;;;;;;0.70;0.20;;;28.90;99.90;;;;;;5074339;28;20817;-70
2022/08/13 11:14:35;;;;;;;0.70;0.30;;;29.10;99.90;;;;;;5073770;28;20458;-71
2022/08/13 11:17:09;;;;;;;0.70;0.10;;;29.10;99.90;;;;;;5075989;28;20529;-70
2022/08/13 11:20:02;;;;;;;0.70;0.17;;;29.30;99.90;;;;;;5076568;28;20634;-72
2022/08/13 11:22:36;;;;;;;0.70;0.20;;;29.50;99.90;;;;;;5075057;28;20536;-71
2022/08/13 11:25:05;;;;;;;0.70;0.10;;;29.50;99.90;;;;;;5075661;28;20506;-70
2022/08/13 11:27:53;;;;;;;0.70;0.10;;;29.70;99.90;;;;;;5075334;28;20437;-71
2022/08/13 11:30:23;;;;;;;0.70;0.10;;;29.80;99.90;;;;;;5055867;28;20957;-71
2022/08/13 11:33:05;;;;;;;0.70;0.10;;;29.80;99.90;;;;;;5055849;28;20568;-70
2022/08/13 11:35:41;;;;;;;1.00;0.40;;;29.90;99.90;;;;;;5067833;28;20983;-71
2022/08/13 11:38:18;;;;;;;1.33;0.60;;;29.80;99.90;;;;;;5070357;28;20441;-72
2022/08/13 11:40:48;;;;;;;0.70;0.20;;;29.50;99.90;;;;;;5075202;28;20528;-71
2022/08/13 11:43:20;;;;;;;0.70;0.20;;;29.30;99.90;;;;;;5083341;28;20456;-71
2022/08/13 11:45:49;;;;;;;0.70;0.20;;;29.30;99.90;;;;;;5081995;28;20549;-70
2022/08/13 11:48:19;;;;;;;0.70;0.13;;;29.50;99.90;;;;;;5077239;28;20441;-72
2022/08/13 11:51:03;;;;;;;0.70;0.20;;;29.60;99.90;;;;;;5075676;28;20529;-72
2022/08/13 11:53:33;;;;;;;0.70;0.20;;;29.80;99.90;;;;;;5075228;28;20462;-72
2022/08/13 11:56:21;;;;;;;0.70;0.20;;;29.80;99.90;;;;;;5074991;28;20477;-71
2022/08/13 11:58:51;;;;;;;0.70;0.10;;;29.70;99.90;;;;;;5074130;28;20928;-71
2022/08/13 12:01:25;;;;;;;0.70;0.17;;;29.60;99.90;;;;;;5071881;28;20468;-70
2022/08/13 12:04:12;;;;;;;0.70;0.20;;;29.50;99.90;;;;;;5065910;28;20506;-71
2022/08/13 12:06:47;;;;;;;0.80;0.37;;;29.50;99.90;;;;;;5073790;28;20429;-71
2022/08/13 12:09:18;;;;;;;0.80;0.50;;;29.40;99.90;;;;;;5071894;28;20528;-70
2022/08/13 12:12:07;;;;;;;0.70;0.20;;;29.20;99.90;;;;;;5071947;28;20449;-73
2022/08/13 12:14:47;;;;;;;0.70;0.20;;;29.20;99.90;;;;;;5073631;28;20449;-72
2022/08/13 12:17:16;;;;;;;0.70;0.13;;;29.10;99.90;;;;;;5071358;28;20479;-73
2022/08/13 12:20:08;;;;;;;0.70;0.10;;;29.10;99.90;;;;;;5073250;28;20433;-72
2022/08/13 12:22:48;;;;;;;0.70;0.20;;;29.30;99.90;;;;;;5073509;28;21003;-73
2022/08/13 12:25:19;;;;;;;0.70;0.20;;;29.30;99.90;;;;;;5073613;28;20434;-73
2022/08/13 12:28:14;;;;;;;0.70;0.10;;;29.70;99.90;;;;;;5073323;28;20955;-72
2022/08/13 12:30:51;;;;;;;0.70;0.20;;;29.70;99.90;;;;;;5074063;28;20525;-71
2022/08/13 12:33:20;;;;;;;0.70;0.20;;;30.00;99.90;;;;;;5073641;28;20885;-73
2022/08/13 12:35:51;;;;;;;0.70;0.20;;;30.00;99.90;;;;;;5073005;28;20474;-71
2022/08/13 12:38:25;;;;;;;0.70;0.33;;;30.10;99.90;;;;;;5073285;28;20437;-73
2022/08/13 12:40:59;;;;;;;0.70;0.10;;;30.00;99.90;;;;;;5073308;28;20465;-72
2022/08/13 12:43:43;;;;;;;0.70;0.20;;;30.10;99.90;;;;;;5072926;28;20975;-71
2022/08/13 12:46:31;;;;;;;0.70;0.13;;;30.10;99.90;;;;;;5072592;28;20453;-68
2022/08/13 12:49:01;;;;;;;0.70;0.20;;;30.20;99.90;;;;;;5072631;28;20449;-71
2022/08/13 12:51:31;;;;;;;0.70;0.20;;;30.20;99.90;;;;;;5074021;28;20477;-71
2022/08/13 12:54:19;;;;;;;0.70;0.10;;;30.20;99.90;;;;;;5073256;28;20461;-72
2022/08/13 12:57:07;;;;;;;0.80;0.37;;;30.20;99.90;;;;;;5073029;28;20469;-71
2022/08/13 12:59:55;;;;;;;0.70;0.20;;;30.20;99.90;;;;;;5072114;28;20936;-71
2022/08/13 13:02:29;;;;;;;0.70;0.10;;;30.20;99.90;;;;;;5072437;28;20968;-71
2022/08/13 13:04:57;;;;;;;0.70;0.20;;;30.20;99.90;;;;;;5069010;28;20476;-71
2022/08/13 13:07:44;;;;;;;0.70;0.20;;;30.30;99.90;;;;;;5066941;28;20429;-71
2022/08/13 13:10:34;;;;;;;0.70;0.20;;;30.30;99.90;;;;;;5072375;28;20449;-79
2022/08/13 13:13:03;;;;;;;0.70;0.10;;;30.30;99.90;;;;;;5072726;28;20446;-79
2022/08/13 13:15:39;;;;;;;0.70;0.20;;;30.30;99.90;;;;;;5073423;28;20475;-79
2022/08/13 13:18:28;;;;;;;0.70;0.10;;;30.30;99.90;;;;;;5075262;28;20442;-78
2022/08/13 13:21:16;;;;;;;0.70;0.20;;;30.40;99.90;;;;;;5075705;28;20441;-79
2022/08/13 13:23:46;;;;;;;0.70;0.20;;;30.40;99.90;;;;;;5074464;28;20504;-78
2022/08/13 13:26:28;;;;;;;0.70;0.20;;;30.50;99.90;;;;;;5075714;28;20441;-79
2022/08/13 13:28:59;;;;;;;0.70;0.10;;;30.70;99.90;;;;;;5076340;28;20481;-78
2022/08/13 13:31:27;;;;;;;0.70;0.20;;;30.80;99.90;;;;;;5075903;28;20445;-79
2022/08/13 13:34:16;;;;;;;0.87;0.60;;;30.80;99.90;;;;;;5076650;28;20519;-77
2022/08/13 13:36:50;;;;;;;0.70;0.20;;;30.80;99.90;;;;;;5077743;28;20477;-79
2022/08/13 13:39:23;;;;;;;0.70;0.10;;;30.90;99.90;;;;;;5076612;28;21007;-78
2022/08/13 13:41:53;;;;;;;0.70;0.20;;;30.90;99.90;;;;;;5075371;28;20448;-79
2022/08/13 13:44:22;;;;;;;0.70;0.20;;;31.00;99.90;;;;;;5074615;28;20493;-78
2022/08/13 13:47:09;;;;;;;0.70;0.17;;;31.00;99.90;;;;;;5075241;28;20460;-79
2022/08/13 13:49:37;;;;;;;0.70;0.10;;;31.10;99.90;;;;;;5075888;28;20441;-78
2022/08/13 13:52:08;;;;;;;0.70;0.20;;;31.10;99.90;;;;;;5074785;28;20450;-78